Time,TemperatureF,DewpointF,PressureIn,WindDirection,WindDirectionDegrees,WindSpeedMPH,WindSpeedGustMPH,Humidity,HourlyPrecipIn,Conditions,Clouds,dailyrainin,SoftwareType,DateUTC
2013-06-07 00:13:00,52.5,50.2,29.62,SSW,202,1.7,-999.0,92,-99.99,,,0.00,Acu-Link.com,2013-06-07 07:13:00,
2013-06-07 00:29:00,52.2,49.9,29.63,SSW,202,0.0,-999.0,92,-99.99,,,0.00,Acu-Link.com,2013-06-07 07:29:00,
2013-06-07 00:44:00,52.2,50.2,29.62,WSW,247,2.2,-999.0,93,-99.99,,,0.00,Acu-Link.com,2013-06-07 07:44:00,
2013-06-07 00:59:00,52.0,50.3,29.62,SSW,202,1.7,-999.0,94,-99.99,,,0.00,Acu-Link.com,2013-06-07 07:59:00,
2013-06-07 01:14:00,52.0,50.3,29.61,South,180,1.7,-999.0,94,-99.99,,,0.00,Acu-Link.com,2013-06-07 08:14:00,
2013-06-07 01:29:00,51.6,50.2,29.61,SSE,157,0.0,-999.0,95,-99.99,,,0.00,Acu-Link.com,2013-06-07 08:29:00,
2013-06-07 01:45:00,51.3,50.2,29.62,SSW,202,2.2,-999.0,96,-99.99,,,0.00,Acu-Link.com,2013-06-07 08:45:00,
2013-06-07 02:00:00,51.1,50.0,29.62,South,180,0.0,-999.0,96,-99.99,,,0.00,Acu-Link.com,2013-06-07 09:00:00,
2013-06-07 02:15:00,50.7,49.6,29.61,SSW,202,0.0,-999.0,96,-99.99,,,0.00,Acu-Link.com,2013-06-07 09:15:00,
2013-06-07 02:30:00,50.5,49.7,29.61,SSE,157,0.0,-999.0,97,-99.99,,,0.00,Acu-Link.com,2013-06-07 09:30:00,
2013-06-07 02:45:00,50.0,48.9,29.62,South,180,0.0,-999.0,96,-99.99,,,0.00,Acu-Link.com,2013-06-07 09:45:00,
2013-06-07 03:01:00,50.4,49.6,29.61,SSW,202,0.0,-999.0,97,-99.99,,,0.00,Acu-Link.com,2013-06-07 10:01:00,
2013-06-07 03:46:00,50.7,50.2,29.60,SSW,202,0.0,-999.0,98,-99.99,,,0.00,Acu-Link.com,2013-06-07 10:46:00,
2013-06-07 04:01:00,50.9,50.4,29.60,WNW,292,0.0,-999.0,98,-99.99,,,0.00,Acu-Link.com,2013-06-07 11:01:00,
2013-06-07 04:17:00,50.9,50.4,29.60,North,0,0.0,-999.0,98,-99.99,,,0.00,Acu-Link.com,2013-06-07 11:17:00,
2013-06-07 04:32:00,51.4,50.6,29.61,WNW,292,0.0,-999.0,97,-99.99,,,0.00,Acu-Link.com,2013-06-07 11:32:00,
2013-06-07 04:47:00,52.2,51.1,29.60,SW,225,0.0,-999.0,96,-99.99,,,0.00,Acu-Link.com,2013-06-07 11:47:00,
2013-06-07 05:02:00,52.2,50.8,29.60,South,180,1.7,-999.0,95,-99.99,,,0.00,Acu-Link.com,2013-06-07 12:02:00,
2013-06-07 05:18:00,52.0,50.3,29.61,South,180,0.0,-999.0,94,-99.99,,,0.00,Acu-Link.com,2013-06-07 12:18:00,
2013-06-07 05:33:00,52.2,50.5,29.61,SW,225,0.0,-999.0,94,-99.99,,,0.00,Acu-Link.com,2013-06-07 12:33:00,
2013-06-07 05:48:00,52.2,50.5,29.61,SW,225,0.0,-999.0,94,-99.99,,,0.00,Acu-Link.com,2013-06-07 12:48:00,
2013-06-07 06:03:00,52.3,50.3,29.61,SSW,202,0.0,-999.0,93,-99.99,,,0.00,Acu-Link.com,2013-06-07 13:03:00,
2013-06-07 06:18:00,52.5,50.5,29.62,West,270,0.0,-999.0,93,-99.99,,,0.00,Acu-Link.com,2013-06-07 13:18:00,
2013-06-07 06:34:00,52.7,50.7,29.62,South,180,0.0,-999.0,93,-99.99,,,0.00,Acu-Link.com,2013-06-07 13:34:00,
2013-06-07 06:49:00,52.7,51.0,29.62,SW,225,0.0,-999.0,94,-99.99,,,0.00,Acu-Link.com,2013-06-07 13:49:00,
2013-06-07 08:50:00,57.6,52.5,29.62,WNW,292,1.1,-999.0,83,-99.99,,,0.00,Acu-Link.com,2013-06-07 15:50:00,
2013-06-07 09:05:00,59.7,53.5,29.61,NW,315,1.1,-999.0,80,-99.99,,,0.00,Acu-Link.com,2013-06-07 16:05:00,
2013-06-07 09:21:00,62.4,53.3,29.61,WNW,292,0.0,-999.0,72,-99.99,,,0.00,Acu-Link.com,2013-06-07 16:21:00,
2013-06-07 09:36:00,64.8,54.0,29.62,NNW,337,2.2,-999.0,68,-99.99,,,0.00,Acu-Link.com,2013-06-07 16:36:00,
2013-06-07 09:51:00,65.7,54.0,29.60,NE,45,2.7,-999.0,66,-99.99,,,0.00,Acu-Link.com,2013-06-07 16:51:00,
2013-06-07 10:37:00,66.7,55.0,29.61,NNE,22,3.2,-999.0,66,-99.99,,,0.00,Acu-Link.com,2013-06-07 17:37:00,
2013-06-07 10:52:00,70.0,55.9,29.60,NNW,337,2.7,-999.0,61,-99.99,,,0.00,Acu-Link.com,2013-06-07 17:52:00,
2013-06-07 11:07:00,69.8,56.2,29.60,East,90,1.7,-999.0,62,-99.99,,,0.00,Acu-Link.com,2013-06-07 18:07:00,
2013-06-07 11:22:00,71.8,56.7,29.60,NNE,22,0.0,-999.0,59,-99.99,,,0.00,Acu-Link.com,2013-06-07 18:22:00,
2013-06-07 11:37:00,70.9,57.2,29.59,North,0,0.0,-999.0,62,-99.99,,,0.00,Acu-Link.com,2013-06-07 18:37:00,
2013-06-07 11:53:00,73.4,57.7,29.58,West,270,2.2,-999.0,58,-99.99,,,0.00,Acu-Link.com,2013-06-07 18:53:00,
2013-06-07 12:08:00,75.6,57.8,29.59,NNE,22,3.2,-999.0,54,-99.99,,,0.00,Acu-Link.com,2013-06-07 19:08:00,
2013-06-07 12:23:00,76.5,58.1,29.58,NE,45,0.0,-999.0,53,-99.99,,,0.00,Acu-Link.com,2013-06-07 19:23:00,
2013-06-07 12:53:00,78.1,58.5,29.57,WNW,292,2.2,-999.0,51,-99.99,,,0.00,Acu-Link.com,2013-06-07 19:53:00,
2013-06-07 13:09:00,79.7,58.3,29.56,NE,45,2.2,-999.0,48,-99.99,,,0.00,Acu-Link.com,2013-06-07 20:09:00,
2013-06-07 13:24:00,82.0,59.2,29.56,NE,45,2.7,-999.0,46,-99.99,,,0.00,Acu-Link.com,2013-06-07 20:24:00,
2013-06-07 13:39:00,82.4,58.9,29.55,NNE,22,2.2,-999.0,45,-99.99,,,0.00,Acu-Link.com,2013-06-07 20:39:00,
2013-06-07 14:10:00,83.3,58.4,29.53,ENE,67,2.7,-999.0,43,-99.99,,,0.00,Acu-Link.com,2013-06-07 21:10:00,
2013-06-07 14:25:00,83.8,59.5,29.53,NE,45,2.2,-999.0,44,-99.99,,,0.00,Acu-Link.com,2013-06-07 21:25:00,
2013-06-07 14:55:00,84.4,58.8,29.51,NNW,337,2.7,-999.0,42,-99.99,,,0.00,Acu-Link.com,2013-06-07 21:55:00,
2013-06-07 15:41:00,83.8,58.9,29.49,ENE,67,1.7,-999.0,43,-99.99,,,0.00,Acu-Link.com,2013-06-07 22:41:00,
2013-06-07 16:11:00,86.5,60.0,29.48,North,0,0.0,-999.0,41,-99.99,,,0.00,Acu-Link.com,2013-06-07 23:11:00,
2013-06-07 16:26:00,85.8,60.0,29.47,NE,45,2.2,-999.0,42,-99.99,,,0.00,Acu-Link.com,2013-06-07 23:26:00,
2013-06-07 16:42:00,86.0,60.2,29.46,NNW,337,2.2,-999.0,42,-99.99,,,0.00,Acu-Link.com,2013-06-07 23:42:00,
2013-06-07 16:57:00,85.8,60.7,29.45,NNE,22,2.2,-999.0,43,-99.99,,,0.00,Acu-Link.com,2013-06-07 23:57:00,
2013-06-07 17:12:00,84.9,60.5,29.44,NW,315,1.7,-999.0,44,-99.99,,,0.00,Acu-Link.com,2013-06-08 00:12:00,
2013-06-07 17:43:00,89.1,60.9,29.44,NNE,22,0.0,-999.0,39,-99.99,,,0.00,Acu-Link.com,2013-06-08 00:43:00,
2013-06-07 17:58:00,91.4,61.4,29.44,NE,45,0.0,-999.0,37,-99.99,,,0.00,Acu-Link.com,2013-06-08 00:58:00,
2013-06-07 18:13:00,90.5,60.6,29.43,NE,45,0.0,-999.0,37,-99.99,,,0.00,Acu-Link.com,2013-06-08 01:13:00,
2013-06-07 18:44:00,87.6,60.3,29.43,NNE,22,0.0,-999.0,40,-99.99,,,0.00,Acu-Link.com,2013-06-08 01:44:00,
2013-06-07 18:59:00,84.7,59.0,29.43,North,0,0.0,-999.0,42,-99.99,,,0.00,Acu-Link.com,2013-06-08 01:59:00,
2013-06-07 19:14:00,85.1,60.1,29.43,NE,45,0.0,-999.0,43,-99.99,,,0.00,Acu-Link.com,2013-06-08 02:14:00,
2013-06-07 19:44:00,81.1,58.3,29.43,NNE,22,0.0,-999.0,46,-99.99,,,0.00,Acu-Link.com,2013-06-08 02:44:00,
2013-06-07 20:00:00,79.5,58.1,29.43,NNE,22,0.0,-999.0,48,-99.99,,,0.00,Acu-Link.com,2013-06-08 03:00:00,
2013-06-07 20:15:00,76.6,57.1,29.42,ENE,67,0.0,-999.0,51,-99.99,,,0.00,Acu-Link.com,2013-06-08 03:15:00,
2013-06-07 20:30:00,72.1,57.0,29.42,NE,45,0.0,-999.0,59,-99.99,,,0.00,Acu-Link.com,2013-06-08 03:30:00,
2013-06-07 20:45:00,69.3,57.0,29.42,NE,45,0.0,-999.0,65,-99.99,,,0.00,Acu-Link.com,2013-06-08 03:45:00,
2013-06-07 21:00:00,67.6,56.2,29.43,NE,45,0.0,-999.0,67,-99.99,,,0.00,Acu-Link.com,2013-06-08 04:00:00,
2013-06-07 21:16:00,66.6,55.3,29.43,NE,45,0.0,-999.0,67,-99.99,,,0.00,Acu-Link.com,2013-06-08 04:16:00,
2013-06-07 21:31:00,65.3,54.5,29.43,NW,315,0.0,-999.0,68,-99.99,,,0.00,Acu-Link.com,2013-06-08 04:31:00,
2013-06-07 21:46:00,64.4,54.4,29.44,South,180,0.0,-999.0,70,-99.99,,,0.00,Acu-Link.com,2013-06-08 04:46:00,
2013-06-07 22:02:00,63.7,54.1,29.44,ESE,112,0.0,-999.0,71,-99.99,,,0.00,Acu-Link.com,2013-06-08 05:02:00,
2013-06-07 22:17:00,62.8,53.6,29.45,East,90,0.0,-999.0,72,-99.99,,,0.00,Acu-Link.com,2013-06-08 05:17:00,
2013-06-07 22:32:00,61.7,53.0,29.45,ESE,112,0.0,-999.0,73,-99.99,,,0.00,Acu-Link.com,2013-06-08 05:32:00,
2013-06-07 22:47:00,61.5,53.1,29.46,South,180,0.0,-999.0,74,-99.99,,,0.00,Acu-Link.com,2013-06-08 05:47:00,
2013-06-07 23:02:00,61.2,52.8,29.45,NE,45,0.0,-999.0,74,-99.99,,,0.00,Acu-Link.com,2013-06-08 06:02:00,
2013-06-07 23:18:00,60.6,53.0,29.47,SSE,157,0.0,-999.0,76,-99.99,,,0.00,Acu-Link.com,2013-06-08 06:18:00,
2013-06-07 23:33:00,60.1,52.9,29.45,SE,135,0.0,-999.0,77,-99.99,,,0.00,Acu-Link.com,2013-06-08 06:33:00,
2013-06-07 23:48:00,59.7,52.8,29.45,SE,135,0.0,-999.0,78,-99.99,,,0.00,Acu-Link.com,2013-06-08 06:48:00,